Flight Track Log - Related Links

Times and Time Zones

All times are in EDT time to prevent confusion due to time zone crossing. See the N27XP flight status page for this flight to view local times or setup timezone preferences in your user account.

Time Position Orientation Groundspeed Altitude Reporting Facility
EDT Latitude Longitude Course Direction KTS MPH feet Rate Location/Type
Fri 11:25:17 AM 35.3969 -79.1822 340° North 304 350 7,100  Level Washington Center
Fri 11:26:27 AM 35.4783 -79.1144 34° Northeast 292 336 7,100  Level Washington Center
Fri 11:27:23 AM 35.5403 -79.0611 35° Northeast 291 335 7,100 462 Level Washington Center
Fri 11:28:00 AM 35.9258 -79.6970 340° North  Level Estimated
Fri 11:28:24 AM 35.6111 -79.0667 356° North 287 330 8,000  Level Washington Center
Fri 11:29:00 AM 36.0405 -79.7488 340° North  Level Estimated
Fri 11:29:25 AM 35.6761 -79.1258 324° Northwest 283 326 8,100  Level Washington Center
Fri 11:30:00 AM 36.1551 -79.8008 340° North  Level Estimated
Fri 11:30:25 AM 35.7392 -79.1822 324° Northwest 278 320 8,100  Level Washington Center
Fri 11:32:00 AM 35.8937 -79.3254 323° Northwest  Level Estimated
Fri 11:39:00 AM 36.5749 -79.9652 323° Northwest  Level Estimated
Fri 11:40:00 AM 36.6167 -80.0167 22° Northeast  Level FlightAware Approximate
Fri 11:41:00 AM 36.6307 -80.0183 22° Northeast  Level Estimated
Fri 11:42:00 AM 36.6307 -80.0183 22° Northeast  Level Estimated
Fri 11:43:00 AM 36.6307 -80.0183 22° Northeast  Level Estimated
Fri 11:44:00 AM 36.6307 -80.0183 22° Northeast  Level Estimated
Fri 11:45:00 AM 36.6307 -80.0183 22° Northeast  Level Estimated
Fri 11:46:00 AM 36.6307 -80.0183 22° Northeast  Level Estimated
Fri 11:47:00 AM 36.6307 -80.0183 22° Northeast  Level Estimated
Fri 11:48:00 AM 36.6307 -80.0183 22° Northeast  Level Estimated
Fri 11:49:00 AM 36.6307 -80.0183 22° Northeast  Level Estimated
Fri 11:50:00 AM 36.6307 -80.0183 22° Northeast  Level Estimated
Fri 11:51:00 AM 36.6307 -80.0183 22° Northeast  Level Estimated
Fri 11:52:00 AM 36.6307 -80.0183 22° Northeast  Level Estimated
Fri 11:53:00 AM 36.6307 -80.0183 22° Northeast  Level Estimated
Fri 11:54:00 AM 36.6307 -80.0183 22° Northeast  Level Estimated
Fri 11:55:00 AM 36.6307 -80.0183 22° Northeast  Level Estimated
Fri 11:56:00 AM 36.6307 -80.0183 22° Northeast  Level Estimated
Fri 11:57:00 AM 36.6307 -80.0183 22° Northeast  Level Estimated
Fri 11:58:00 AM 36.6307 -80.0183 22° Northeast  Level Estimated
Fri 11:59:00 AM 36.6307 -80.0183 22° Northeast  Level Estimated
Fri 12:00:00 PM 36.6307 -80.0183 22° Northeast  Level Estimated
Fri 12:01:00 PM 36.6307 -80.0183 22° Northeast  Level Estimated

Login

Don't have an account? Register now (free) for customized features, flight alerts, and more!